createdAt,value
2022-10-16T00:03:13.010Z,87.57
2022-10-16T00:08:16.220Z,87.54
2022-10-16T00:13:20.898Z,87.77
2022-10-16T00:18:24.684Z,87.87
2022-10-16T00:23:27.895Z,88.01
2022-10-16T00:28:31.769Z,88.02
2022-10-16T00:33:35.231Z,88.05
2022-10-16T00:38:39.159Z,88.17
2022-10-16T00:43:57.317Z,88.28
2022-10-16T00:49:03.595Z,88.32
2022-10-16T00:54:22.984Z,88.39
2022-10-16T00:59:34.180Z,88.33
2022-10-16T01:04:51.313Z,88.43
2022-10-16T01:10:15.720Z,88.62
2022-10-16T01:15:18.728Z,88.76
2022-10-16T01:20:40.980Z,88.82
2022-10-16T01:26:35.295Z,88.89
2022-10-16T01:31:42.296Z,88.82
2022-10-16T01:37:10.930Z,88.76
2022-10-16T01:42:25.369Z,88.72
2022-10-16T01:47:31.949Z,88.87
2022-10-16T01:52:40.889Z,89.07
2022-10-16T01:57:48.603Z,89.12
2022-10-16T02:02:56.357Z,89.13
2022-10-16T02:08:01.839Z,89.11
2022-10-16T02:13:14.307Z,89.00
2022-10-16T02:18:17.716Z,89.04
2022-10-16T02:23:50.828Z,88.92
2022-10-16T02:29:01.718Z,89.20
2022-10-16T02:34:07.280Z,89.13
2022-10-16T02:39:11.514Z,88.99
2022-10-16T02:44:15.027Z,89.02
2022-10-16T02:49:19.409Z,89.18
2022-10-16T02:54:22.575Z,89.13
2022-10-16T02:59:25.680Z,89.11
2022-10-16T03:04:28.884Z,89.08
2022-10-16T03:09:31.993Z,89.22
2022-10-16T03:14:35.509Z,89.14
2022-10-16T03:19:38.615Z,89.28
2022-10-16T03:24:42.026Z,89.15
2022-10-16T03:29:45.134Z,89.31
2022-10-16T03:34:48.544Z,89.14
2022-10-16T03:39:51.659Z,89.01
2022-10-16T03:44:54.796Z,89.14
2022-10-16T03:49:57.968Z,89.11
2022-10-16T03:55:01.282Z,88.90
2022-10-16T04:00:04.996Z,88.79
2022-10-16T04:05:09.142Z,88.75
2022-10-16T04:10:12.231Z,88.79
2022-10-16T04:15:15.549Z,88.83
2022-10-16T04:20:19.274Z,88.85
2022-10-16T04:25:22.880Z,89.13
2022-10-16T04:30:26.195Z,88.96
2022-10-16T04:35:29.503Z,88.96
2022-10-16T04:40:37.728Z,89.22
2022-10-16T04:45:40.936Z,89.21
2022-10-16T04:50:44.146Z,89.16
2022-10-16T04:55:47.455Z,89.50
2022-10-16T05:00:50.667Z,89.49
2022-10-16T05:05:54.076Z,89.61
2022-10-16T05:10:57.186Z,89.80
2022-10-16T05:16:00.402Z,89.60
2022-10-16T05:21:04.111Z,89.94
2022-10-16T05:26:07.526Z,90.02
2022-10-16T05:31:11.353Z,90.01
2022-10-16T05:36:14.557Z,89.91
2022-10-16T05:41:22.684Z,89.90
2022-10-16T05:46:25.892Z,90.01
2022-10-16T05:51:28.995Z,90.24
2022-10-16T05:56:32.201Z,90.00
2022-10-16T06:01:36.640Z,90.08
2022-10-16T06:06:39.816Z,89.98
2022-10-16T06:11:43.057Z,89.99
2022-10-16T06:16:46.136Z,89.61
2022-10-16T06:21:49.269Z,89.59
2022-10-16T06:26:52.480Z,89.37
2022-10-16T06:31:55.891Z,89.40
2022-10-16T06:36:59.411Z,89.52
2022-10-16T06:42:02.777Z,89.45
2022-10-16T06:47:07.977Z,89.18
2022-10-16T06:52:11.183Z,89.27
2022-10-16T06:57:14.496Z,89.07
2022-10-16T07:02:17.702Z,88.85
2022-10-16T07:07:21.016Z,88.97
2022-10-16T07:12:24.505Z,88.47
2022-10-16T07:17:27.854Z,88.65
2022-10-16T07:22:31.047Z,88.70
2022-10-16T07:27:34.381Z,88.39
2022-10-16T07:32:38.181Z,88.47
2022-10-16T07:37:46.562Z,88.16
2022-10-16T07:42:49.821Z,87.87
2022-10-16T07:47:52.926Z,87.59
2022-10-16T07:52:56.236Z,87.25
2022-10-16T07:57:59.447Z,86.87
2022-10-16T08:03:02.762Z,86.78
2022-10-16T08:08:05.862Z,86.63
2022-10-16T08:13:09.429Z,86.43
2022-10-16T08:18:14.686Z,85.98
2022-10-16T08:23:17.843Z,85.97
2022-10-16T08:28:21.309Z,86.00
2022-10-16T08:33:24.670Z,85.73
2022-10-16T08:38:27.878Z,85.80
2022-10-16T08:43:54.229Z,85.71
2022-10-16T08:49:00.614Z,85.07
2022-10-16T08:54:24.710Z,85.07
2022-10-16T08:59:27.916Z,84.73
2022-10-16T09:04:55.616Z,84.50
2022-10-16T09:10:28.637Z,84.56
2022-10-16T09:15:49.263Z,84.20
2022-10-16T09:21:11.375Z,83.67
2022-10-16T09:26:17.427Z,83.20
2022-10-16T09:31:22.966Z,83.10
2022-10-16T09:36:28.610Z,83.11
2022-10-16T09:41:32.304Z,83.05
2022-10-16T09:46:37.247Z,82.90
2022-10-16T09:51:40.354Z,82.95
2022-10-16T09:56:46.848Z,83.06
2022-10-16T10:01:54.863Z,82.75
2022-10-16T10:06:58.905Z,82.49
2022-10-16T10:12:07.118Z,82.17
2022-10-16T10:17:13.196Z,82.13
2022-10-16T10:22:38.107Z,82.23
2022-10-16T10:27:51.659Z,81.85
2022-10-16T10:33:40.743Z,81.33
2022-10-16T10:38:59.515Z,80.87
2022-10-16T10:44:20.951Z,80.46
2022-10-16T10:49:32.866Z,79.70
2022-10-16T10:54:38.734Z,79.56
2022-10-16T11:00:19.933Z,78.50
2022-10-16T11:05:28.339Z,78.25
2022-10-16T11:11:03.639Z,77.86
2022-10-16T11:16:23.219Z,77.38
2022-10-16T11:21:31.301Z,76.87
2022-10-16T11:26:42.641Z,76.90
2022-10-16T11:31:55.063Z,76.92
2022-10-16T11:37:05.444Z,76.84
2022-10-16T11:42:28.615Z,76.91
2022-10-16T11:48:00.084Z,76.91
2022-10-16T11:53:15.588Z,76.76
2022-10-16T11:58:35.688Z,76.24
2022-10-16T12:04:05.623Z,75.52
2022-10-16T12:09:18.252Z,75.15
2022-10-16T12:14:29.447Z,74.64
2022-10-16T12:19:33.576Z,74.65
2022-10-16T12:24:39.310Z,74.57
2022-10-16T12:29:45.275Z,74.45
2022-10-16T12:34:49.246Z,74.09
2022-10-16T12:39:55.935Z,73.68
2022-10-16T12:44:59.143Z,73.92
2022-10-16T12:50:05.559Z,74.24
2022-10-16T12:55:21.603Z,74.25
2022-10-16T13:00:55.293Z,74.32
2022-10-16T13:06:01.641Z,74.37
2022-10-16T13:11:16.319Z,74.36
2022-10-16T13:16:51.989Z,74.57
2022-10-16T13:22:04.310Z,74.56
2022-10-16T13:27:13.355Z,74.54
2022-10-16T13:32:17.382Z,74.64
2022-10-16T13:37:23.118Z,74.67
2022-10-16T13:42:29.330Z,74.87
2022-10-16T13:47:33.255Z,75.16
2022-10-16T13:52:36.669Z,75.20
2022-10-16T13:57:40.493Z,75.21
2022-10-16T14:02:45.235Z,75.26
2022-10-16T14:07:52.540Z,75.41
2022-10-16T14:13:01.996Z,75.54
2022-10-16T14:18:05.510Z,75.46
2022-10-16T14:23:32.167Z,75.64
2022-10-16T14:28:36.965Z,75.92
2022-10-16T14:33:40.119Z,75.99
2022-10-16T14:39:07.789Z,76.12
2022-10-16T14:44:12.728Z,76.14
2022-10-16T14:49:23.333Z,76.36
2022-10-16T14:54:26.541Z,76.39
2022-10-16T14:59:39.990Z,76.55
2022-10-16T15:04:43.200Z,76.69
2022-10-16T15:09:49.095Z,77.02
2022-10-16T15:14:53.097Z,77.21
2022-10-16T15:19:56.205Z,77.48
2022-10-16T15:24:59.413Z,77.41
2022-10-16T15:30:02.516Z,77.35
2022-10-16T15:35:06.332Z,77.37
2022-10-16T15:40:10.268Z,77.46
2022-10-16T15:49:48.317Z,77.76
2022-10-16T15:54:53.387Z,77.93
2022-10-16T16:05:46.702Z,78.15
2022-10-16T16:11:10.169Z,78.39
2022-10-16T16:16:16.596Z,78.61
2022-10-16T16:21:18.741Z,78.58
2022-10-16T16:26:31.672Z,78.81
2022-10-16T16:31:34.683Z,79.25
2022-10-16T16:36:36.970Z,79.33
2022-10-16T16:41:38.840Z,79.56
2022-10-16T16:46:43.214Z,79.80
2022-10-16T16:51:45.055Z,80.02
2022-10-16T16:56:47.242Z,80.05
2022-10-16T17:01:54.197Z,80.64
2022-10-16T17:06:58.471Z,81.17
2022-10-16T17:12:00.591Z,81.43
2022-10-16T17:17:02.543Z,81.61
2022-10-16T17:22:04.602Z,82.02
2022-10-16T17:27:06.591Z,82.30
2022-10-16T17:32:08.364Z,82.71
2022-10-16T17:37:14.279Z,82.91
2022-10-16T17:42:19.188Z,83.33
2022-10-16T17:47:20.922Z,83.44
2022-10-16T17:52:22.837Z,84.05
2022-10-16T17:57:25.129Z,84.17
2022-10-16T18:02:27.396Z,84.60
2022-10-16T18:07:29.872Z,85.00
2022-10-16T18:12:32.603Z,85.30
2022-10-16T18:17:39.102Z,85.56
2022-10-16T18:22:41.471Z,85.70
2022-10-16T18:27:43.554Z,86.06
2022-10-16T18:32:45.654Z,86.19
2022-10-16T18:37:49.284Z,86.39
2022-10-16T18:42:53.409Z,86.59
2022-10-16T18:47:55.983Z,86.99
2022-10-16T18:52:58.295Z,87.32
2022-10-16T18:58:00.781Z,87.51
2022-10-16T19:03:03.965Z,87.84
2022-10-16T19:08:06.215Z,88.32
2022-10-16T19:13:11.023Z,88.57
2022-10-16T19:18:13.183Z,88.55
2022-10-16T19:23:15.269Z,88.51
2022-10-16T19:28:17.245Z,88.57
2022-10-16T19:33:19.223Z,88.93
2022-10-16T19:38:21.206Z,88.92
2022-10-16T19:43:23.184Z,89.30
2022-10-16T19:53:32.876Z,89.61
2022-10-16T19:58:34.856Z,89.92
2022-10-16T20:03:38.986Z,90.22
2022-10-16T20:08:42.412Z,90.22
2022-10-16T20:13:44.685Z,90.68
2022-10-16T20:18:49.121Z,90.72
2022-10-16T20:23:51.258Z,90.97
2022-10-16T20:28:54.414Z,91.18
2022-10-16T20:33:58.853Z,91.62
2022-10-16T20:39:01.751Z,91.64
2022-10-16T20:44:04.158Z,91.39
2022-10-16T20:49:10.998Z,91.84
2022-10-16T20:54:18.340Z,92.10
2022-10-16T20:59:20.115Z,92.08
2022-10-16T21:04:21.890Z,91.79
2022-10-16T21:09:24.893Z,92.05
2022-10-16T21:14:26.771Z,92.29
2022-10-16T21:19:29.877Z,92.48
2022-10-16T21:24:31.753Z,92.53
2022-10-16T21:29:34.268Z,92.56
2022-10-16T21:34:36.225Z,92.92
2022-10-16T21:39:38.204Z,92.93
2022-10-16T21:44:40.184Z,92.98
2022-10-16T21:49:42.162Z,93.29
2022-10-16T21:54:44.044Z,92.93
2022-10-16T21:59:45.820Z,92.99
2022-10-16T22:04:47.553Z,93.09
2022-10-16T22:09:49.473Z,93.35
2022-10-16T22:14:51.349Z,93.09
2022-10-16T22:19:53.223Z,93.18
2022-10-16T22:24:55.103Z,93.16
2022-10-16T22:29:56.976Z,93.44
2022-10-16T22:34:58.857Z,93.65
2022-10-16T22:40:01.183Z,93.72
2022-10-16T22:45:03.751Z,93.69
2022-10-16T22:50:06.226Z,93.77
2022-10-16T22:55:08.615Z,93.59
2022-10-16T23:00:13.911Z,94.12
2022-10-16T23:05:16.056Z,93.87
2022-10-16T23:10:18.757Z,94.05
2022-10-16T23:15:20.834Z,94.07
2022-10-16T23:20:23.941Z,94.16
2022-10-16T23:25:25.922Z,94.17
2022-10-16T23:30:28.001Z,94.27
2022-10-16T23:35:29.880Z,94.17
2022-10-16T23:40:31.755Z,94.40
2022-10-16T23:45:33.635Z,94.52
2022-10-16T23:50:35.510Z,94.80
2022-10-16T23:55:37.492Z,94.63
